createdAt,value
2023-02-08T00:03:18.776Z,68
2023-02-08T00:13:18.771Z,69
2023-02-08T00:23:18.714Z,69
2023-02-08T00:33:18.763Z,69
2023-02-08T00:43:18.764Z,69
2023-02-08T00:53:18.722Z,70
2023-02-08T01:03:18.725Z,70
2023-02-08T01:13:18.725Z,70
2023-02-08T01:23:18.685Z,70
2023-02-08T01:33:18.709Z,70
2023-02-08T01:43:18.708Z,71
2023-02-08T01:53:18.688Z,71
2023-02-08T02:03:18.706Z,71
2023-02-08T02:13:18.681Z,71
2023-02-08T02:23:18.647Z,71
2023-02-08T02:33:18.647Z,72
2023-02-08T02:43:18.672Z,72
2023-02-08T02:53:18.645Z,72
2023-02-08T03:03:18.679Z,72
2023-02-08T03:13:18.661Z,72
2023-02-08T03:23:18.634Z,73
2023-02-08T03:33:18.663Z,73
2023-02-08T03:43:18.645Z,73
2023-02-08T03:53:18.611Z,73
2023-02-08T04:03:18.612Z,73
2023-02-08T04:13:18.637Z,73
2023-02-08T04:23:18.594Z,73
2023-02-08T04:33:18.619Z,73
2023-02-08T04:43:18.642Z,74
2023-02-08T04:53:18.589Z,74
2023-02-08T05:03:18.678Z,74
2023-02-08T05:13:18.619Z,74
2023-02-08T05:23:18.566Z,74
2023-02-08T05:33:18.584Z,74
2023-02-08T05:43:18.579Z,74
2023-02-08T05:53:18.528Z,74
2023-02-08T06:03:18.597Z,75
2023-02-08T06:13:18.561Z,75
2023-02-08T06:23:18.535Z,75
2023-02-08T06:33:18.574Z,75
2023-02-08T06:43:18.515Z,75
2023-02-08T06:53:18.549Z,75
2023-02-08T07:03:18.555Z,75
2023-02-08T07:13:18.559Z,75
2023-02-08T07:23:18.507Z,75
2023-02-08T07:33:18.548Z,75
2023-02-08T07:43:18.513Z,75
2023-02-08T07:53:18.515Z,75
2023-02-08T08:03:18.536Z,76
2023-02-08T08:13:18.540Z,76
2023-02-08T08:23:18.483Z,76
2023-02-08T08:33:18.510Z,76
2023-02-08T08:43:18.511Z,75
2023-02-08T08:53:18.468Z,75
2023-02-08T09:03:18.538Z,75
2023-02-08T09:13:18.484Z,75
2023-02-08T09:23:18.442Z,75
2023-02-08T09:33:18.488Z,75
2023-02-08T09:43:18.471Z,75
2023-02-08T09:53:18.409Z,75
2023-02-08T10:03:18.518Z,75
2023-02-08T10:13:18.394Z,75
2023-02-08T10:23:21.942Z,75
2023-02-08T10:33:18.492Z,74
2023-02-08T10:43:18.417Z,73
2023-02-08T10:53:18.348Z,71
2023-02-08T11:03:18.361Z,71
2023-02-08T11:13:18.343Z,69
2023-02-08T11:23:18.321Z,68
2023-02-08T11:33:18.312Z,67
2023-02-08T11:43:18.294Z,67
2023-02-08T11:53:18.269Z,66
2023-02-08T12:03:18.293Z,65
2023-02-08T12:13:18.246Z,64
2023-02-08T12:23:18.200Z,64
2023-02-08T12:33:18.204Z,63
2023-02-08T12:43:18.187Z,62
2023-02-08T12:53:18.138Z,62
2023-02-08T13:03:18.146Z,61
2023-02-08T13:13:18.078Z,61
2023-02-08T13:23:18.080Z,60
2023-02-08T13:33:18.068Z,60
2023-02-08T13:43:29.415Z,59
2023-02-08T13:53:18.055Z,59
2023-02-08T14:03:18.059Z,58
2023-02-08T14:13:17.994Z,58
2023-02-08T14:23:17.976Z,57
2023-02-08T14:33:17.996Z,57
2023-02-08T14:43:17.970Z,56
2023-02-08T14:53:17.893Z,56
2023-02-08T15:03:17.875Z,56
2023-02-08T15:13:17.901Z,55
2023-02-08T15:23:17.863Z,55
2023-02-08T15:33:18.005Z,55
2023-02-08T15:43:17.831Z,55
2023-02-08T15:53:17.809Z,55
2023-02-08T16:03:17.968Z,55
2023-02-08T16:13:17.796Z,55
2023-02-08T16:23:17.737Z,56
2023-02-08T16:33:17.733Z,56
2023-02-08T16:43:17.764Z,56
2023-02-08T16:53:17.699Z,56
2023-02-08T17:03:17.764Z,57
2023-02-08T17:13:20.637Z,57
2023-02-08T17:23:17.684Z,57
2023-02-08T17:33:17.737Z,58
2023-02-08T17:43:17.651Z,58
2023-02-08T17:53:17.636Z,58
2023-02-08T18:03:17.656Z,59
2023-02-08T18:13:17.640Z,59
2023-02-08T18:23:17.613Z,59
2023-02-08T18:33:17.609Z,60
2023-02-08T18:43:17.613Z,60
2023-02-08T18:53:17.561Z,60
2023-02-08T19:03:17.580Z,61
2023-02-08T19:13:17.582Z,61
2023-02-08T19:23:17.527Z,61
2023-02-08T19:33:17.569Z,62
2023-02-08T19:43:17.525Z,62
2023-02-08T19:53:17.496Z,62
2023-02-08T20:03:22.002Z,63
2023-02-08T20:13:17.534Z,63
2023-02-08T20:23:22.512Z,63
2023-02-08T20:33:17.516Z,64
2023-02-08T20:43:17.484Z,64
2023-02-08T20:53:17.452Z,64
2023-02-08T21:03:17.488Z,65
2023-02-08T21:13:17.486Z,65
2023-02-08T21:23:17.435Z,65
2023-02-08T21:33:17.467Z,65
2023-02-08T21:43:17.440Z,65
2023-02-08T21:53:17.419Z,66
2023-02-08T22:03:17.568Z,66
2023-02-08T22:13:17.446Z,66
2023-02-08T22:23:17.395Z,66
2023-02-08T22:33:17.416Z,67
2023-02-08T22:43:17.416Z,67
2023-02-08T22:53:19.554Z,67
2023-02-08T23:03:17.487Z,68
2023-02-08T23:13:17.402Z,68
2023-02-08T23:23:17.374Z,68
2023-02-08T23:33:17.352Z,68
2023-02-08T23:43:17.384Z,68
2023-02-08T23:53:17.340Z,69
